createdAt,value
2018-03-31T00:00:55.813Z,17.60
2018-03-31T00:01:55.829Z,18.30
2018-03-31T00:02:55.849Z,17.90
2018-03-31T00:03:55.864Z,17.90
2018-03-31T00:04:55.882Z,17.50
2018-03-31T00:05:55.899Z,16.70
2018-03-31T00:06:55.918Z,16.80
2018-03-31T00:07:55.937Z,17.50
2018-03-31T00:08:55.952Z,16.70
2018-03-31T00:09:55.971Z,17.00
2018-03-31T00:10:55.989Z,17.10
2018-03-31T00:11:56.006Z,23.80
2018-03-31T00:12:56.024Z,18.80
2018-03-31T00:13:56.046Z,27.20
2018-03-31T00:14:56.061Z,20.90
2018-03-31T00:15:56.078Z,23.00
2018-03-31T00:16:56.096Z,103.50
2018-03-31T00:17:56.114Z,74.90
2018-03-31T00:18:56.134Z,63.60
2018-03-31T00:19:56.151Z,43.90
2018-03-31T00:20:56.167Z,28.80
2018-03-31T00:21:56.185Z,42.40
2018-03-31T00:22:56.204Z,84.10
2018-03-31T00:23:56.222Z,48.40
2018-03-31T00:24:56.239Z,25.70
2018-03-31T00:25:56.257Z,22.70
2018-03-31T00:26:56.275Z,20.70
2018-03-31T00:27:56.293Z,21.70
2018-03-31T00:28:56.310Z,20.10
2018-03-31T00:29:56.328Z,20.70
2018-03-31T00:30:56.346Z,21.10
2018-03-31T00:31:56.364Z,21.10
2018-03-31T00:32:56.380Z,20.70
2018-03-31T00:33:56.400Z,23.00
2018-03-31T00:34:56.419Z,22.40
2018-03-31T00:35:56.436Z,22.50
2018-03-31T00:36:56.453Z,22.80
2018-03-31T00:37:56.471Z,23.80
2018-03-31T00:38:56.502Z,24.20
2018-03-31T00:39:56.508Z,24.70
2018-03-31T00:40:56.570Z,22.90
2018-03-31T00:41:56.544Z,25.10
2018-03-31T00:42:56.561Z,24.50
2018-03-31T00:43:56.579Z,24.80
2018-03-31T00:44:56.595Z,24.10
2018-03-31T00:45:56.614Z,24.70
2018-03-31T00:46:56.633Z,25.70
2018-03-31T00:47:56.650Z,25.60
2018-03-31T00:48:56.668Z,25.20
2018-03-31T00:49:56.685Z,25.00
2018-03-31T00:50:56.704Z,24.50
2018-03-31T00:51:56.768Z,24.40
2018-03-31T00:52:56.739Z,24.20
2018-03-31T00:53:56.758Z,24.10
2018-03-31T00:54:56.777Z,24.70
2018-03-31T00:55:56.794Z,25.90
2018-03-31T00:56:56.818Z,25.30
2018-03-31T00:57:56.830Z,25.80
2018-03-31T00:58:56.846Z,26.80
2018-03-31T00:59:56.865Z,25.90
2018-03-31T01:00:56.881Z,24.60
2018-03-31T01:01:56.900Z,27.10
2018-03-31T01:02:56.918Z,26.50
2018-03-31T01:03:56.935Z,28.00
2018-03-31T01:04:56.953Z,26.60
2018-03-31T01:05:56.977Z,26.70
2018-03-31T01:06:57.002Z,26.80
2018-03-31T01:07:57.007Z,27.20
2018-03-31T01:08:57.024Z,29.00
2018-03-31T01:09:57.042Z,29.60
2018-03-31T01:10:57.072Z,29.60
2018-03-31T01:11:57.078Z,28.10
2018-03-31T01:12:57.094Z,27.50
2018-03-31T01:13:57.114Z,27.70
2018-03-31T01:14:57.131Z,27.20
2018-03-31T01:15:57.155Z,27.70
2018-03-31T01:16:57.166Z,29.00
2018-03-31T01:17:57.184Z,28.10
2018-03-31T01:18:57.202Z,28.30
2018-03-31T01:19:57.222Z,28.50
2018-03-31T01:20:57.237Z,27.30
2018-03-31T01:21:57.259Z,28.60
2018-03-31T01:22:57.272Z,28.60
2018-03-31T01:23:57.297Z,28.50
2018-03-31T01:24:57.308Z,28.20
2018-03-31T01:25:57.326Z,28.60
2018-03-31T01:26:57.344Z,28.70
2018-03-31T01:27:57.367Z,37.50
2018-03-31T01:28:57.379Z,39.00
2018-03-31T01:29:57.396Z,31.90
2018-03-31T01:30:57.414Z,29.10
2018-03-31T01:31:57.434Z,29.70
2018-03-31T01:32:57.449Z,29.30
2018-03-31T01:33:57.467Z,30.50
2018-03-31T01:34:57.485Z,29.60
2018-03-31T01:35:57.503Z,29.50
2018-03-31T01:36:57.521Z,29.00
2018-03-31T01:37:57.538Z,30.80
2018-03-31T01:38:57.556Z,29.80
2018-03-31T01:39:57.574Z,30.10
2018-03-31T01:40:57.591Z,32.20
2018-03-31T01:41:57.609Z,31.80
2018-03-31T01:42:57.626Z,31.40
2018-03-31T01:43:57.644Z,33.10
2018-03-31T01:44:57.663Z,32.40
2018-03-31T01:45:57.679Z,33.30
2018-03-31T01:46:57.697Z,33.20
2018-03-31T01:47:57.714Z,32.60
2018-03-31T01:48:57.732Z,30.90
2018-03-31T01:49:57.749Z,31.70
2018-03-31T01:50:57.766Z,32.80
2018-03-31T01:51:57.784Z,32.80
2018-03-31T01:52:57.801Z,31.70
2018-03-31T01:53:57.819Z,31.70
2018-03-31T01:54:57.837Z,30.90
2018-03-31T01:55:57.854Z,31.10
2018-03-31T01:56:57.871Z,31.80
2018-03-31T01:57:57.888Z,31.70
2018-03-31T01:58:57.906Z,32.50
2018-03-31T01:59:57.924Z,29.90
2018-03-31T02:00:57.941Z,31.00
2018-03-31T02:01:57.961Z,30.30
2018-03-31T02:02:57.977Z,31.20
2018-03-31T02:03:57.994Z,31.40
2018-03-31T02:04:58.012Z,31.10
2018-03-31T02:05:58.029Z,32.80
2018-03-31T02:06:58.046Z,33.00
2018-03-31T02:07:58.064Z,31.30
2018-03-31T02:08:58.086Z,31.80
2018-03-31T02:09:58.099Z,33.80
2018-03-31T02:10:58.116Z,33.00
2018-03-31T02:11:58.134Z,32.10
2018-03-31T02:12:58.152Z,32.50
2018-03-31T02:13:58.168Z,32.50
2018-03-31T02:14:58.186Z,31.90
2018-03-31T02:15:58.203Z,31.90
2018-03-31T02:16:58.221Z,31.60
2018-03-31T02:17:58.239Z,31.60
2018-03-31T02:18:58.259Z,31.10
2018-03-31T02:19:58.274Z,29.90
2018-03-31T02:20:58.292Z,30.00
2018-03-31T02:21:58.308Z,29.60
2018-03-31T02:22:58.330Z,29.60
2018-03-31T02:23:58.348Z,28.40
2018-03-31T02:24:58.361Z,28.40
2018-03-31T02:25:58.381Z,29.50
2018-03-31T02:26:58.399Z,28.50
2018-03-31T02:27:58.413Z,28.40
2018-03-31T02:28:58.430Z,24.70
2018-03-31T02:29:58.447Z,26.60
2018-03-31T02:30:58.468Z,25.80
2018-03-31T02:31:58.488Z,24.10
2018-03-31T02:32:58.500Z,24.10
2018-03-31T02:33:58.520Z,24.90
2018-03-31T02:34:58.538Z,25.00
2018-03-31T02:35:58.557Z,25.20
2018-03-31T02:36:58.571Z,24.00
2018-03-31T02:37:58.588Z,23.00
2018-03-31T02:38:58.604Z,23.50
2018-03-31T02:39:58.622Z,23.60
2018-03-31T02:40:58.638Z,23.00
2018-03-31T02:41:58.656Z,23.10
2018-03-31T02:42:58.678Z,22.80
2018-03-31T02:43:58.693Z,21.90
2018-03-31T02:44:58.711Z,22.40
2018-03-31T02:45:58.726Z,22.80
2018-03-31T02:46:58.743Z,21.70
2018-03-31T02:47:58.761Z,22.80
2018-03-31T02:48:58.777Z,22.10
2018-03-31T02:49:58.794Z,20.60
2018-03-31T02:50:58.813Z,20.20
2018-03-31T02:51:58.830Z,21.70
2018-03-31T02:52:58.846Z,22.00
2018-03-31T02:53:58.864Z,21.00
2018-03-31T02:54:58.883Z,20.90
2018-03-31T02:55:58.900Z,21.10
2018-03-31T02:56:58.915Z,22.00
2018-03-31T02:57:58.935Z,20.70
2018-03-31T02:58:58.951Z,21.10
2018-03-31T02:59:58.967Z,20.20
2018-03-31T03:00:58.984Z,18.90
2018-03-31T03:01:59.002Z,19.80
2018-03-31T03:02:59.022Z,20.00
2018-03-31T03:03:59.048Z,18.80
2018-03-31T03:04:59.055Z,19.80
2018-03-31T03:05:59.072Z,18.90
2018-03-31T03:06:59.089Z,18.60
2018-03-31T03:07:59.107Z,19.30
2018-03-31T03:08:59.124Z,19.40
2018-03-31T03:09:59.141Z,18.20
2018-03-31T03:10:59.161Z,18.00
2018-03-31T03:11:59.176Z,19.10
2018-03-31T03:12:59.192Z,19.40
2018-03-31T03:13:59.210Z,17.80
2018-03-31T03:14:59.228Z,19.30
2018-03-31T03:15:59.245Z,18.00
2018-03-31T03:16:59.262Z,19.30
2018-03-31T03:17:59.280Z,18.30
2018-03-31T03:18:59.297Z,19.30
2018-03-31T03:19:59.315Z,19.70
2018-03-31T03:20:59.331Z,20.70
2018-03-31T03:21:59.350Z,20.80
2018-03-31T03:22:59.366Z,21.70
2018-03-31T03:23:59.384Z,21.90
2018-03-31T03:24:59.400Z,22.10
2018-03-31T03:25:59.419Z,21.30
2018-03-31T03:26:59.436Z,22.40
2018-03-31T03:27:59.453Z,22.90
2018-03-31T03:28:59.469Z,21.70
2018-03-31T03:29:59.489Z,23.50
2018-03-31T03:30:59.505Z,24.10
2018-03-31T03:31:59.521Z,23.20
2018-03-31T03:32:59.544Z,22.70
2018-03-31T03:33:59.556Z,21.30
2018-03-31T03:34:59.579Z,22.70
2018-03-31T03:35:59.591Z,21.80
2018-03-31T03:36:59.607Z,21.00
2018-03-31T03:37:59.625Z,21.40
2018-03-31T03:38:59.643Z,21.90
2018-03-31T03:39:59.660Z,22.30
2018-03-31T03:40:59.676Z,22.80
2018-03-31T03:41:59.694Z,21.50
2018-03-31T03:42:59.712Z,21.20
2018-03-31T03:43:59.729Z,21.90
2018-03-31T03:44:59.745Z,21.40
2018-03-31T03:45:59.763Z,22.50
2018-03-31T03:46:59.783Z,22.10
2018-03-31T03:47:59.798Z,21.10
2018-03-31T03:48:59.815Z,21.10
2018-03-31T03:49:59.832Z,21.00
2018-03-31T03:50:59.849Z,20.10
2018-03-31T03:51:59.869Z,21.60
2018-03-31T03:52:59.889Z,20.60
2018-03-31T03:53:59.902Z,20.30
2018-03-31T03:54:59.919Z,20.40
2018-03-31T03:55:59.937Z,20.90
2018-03-31T03:56:59.955Z,20.30
2018-03-31T03:57:59.972Z,20.50
2018-03-31T03:58:59.989Z,20.80
2018-03-31T04:00:00.007Z,21.60
2018-03-31T04:01:00.024Z,20.00
2018-03-31T04:02:00.040Z,20.20
2018-03-31T04:03:00.059Z,21.40
2018-03-31T04:04:00.077Z,21.60
2018-03-31T04:05:00.095Z,20.10
2018-03-31T04:06:00.111Z,20.30
2018-03-31T04:07:00.134Z,21.90
2018-03-31T04:08:00.146Z,21.70
2018-03-31T04:09:00.164Z,21.40
2018-03-31T04:10:00.181Z,21.50
2018-03-31T04:11:00.200Z,22.30
2018-03-31T04:12:00.217Z,21.70
2018-03-31T04:13:00.234Z,21.60
2018-03-31T04:14:00.251Z,21.50
2018-03-31T04:15:00.270Z,21.70
2018-03-31T04:16:00.286Z,22.20
2018-03-31T04:17:00.303Z,21.70
2018-03-31T04:18:00.321Z,22.80
2018-03-31T04:19:00.339Z,23.30
2018-03-31T04:20:00.357Z,23.60
2018-03-31T04:21:00.376Z,22.80
2018-03-31T04:22:00.411Z,24.60
2018-03-31T04:23:00.409Z,24.60
2018-03-31T04:24:00.427Z,24.30
2018-03-31T04:25:00.444Z,23.90
2018-03-31T04:26:00.462Z,25.10
2018-03-31T04:27:00.479Z,25.50
2018-03-31T04:28:00.502Z,25.40
2018-03-31T04:29:00.514Z,26.10
2018-03-31T04:30:00.532Z,26.30
2018-03-31T04:31:00.549Z,26.50
2018-03-31T04:32:00.566Z,24.40
2018-03-31T04:33:00.581Z,27.30
2018-03-31T04:34:00.601Z,26.30
2018-03-31T04:35:00.619Z,27.30
2018-03-31T04:36:00.636Z,26.70
2018-03-31T04:37:00.652Z,28.80
2018-03-31T04:38:00.669Z,27.10
2018-03-31T04:39:00.688Z,27.60
2018-03-31T04:40:00.706Z,27.90
2018-03-31T04:41:00.721Z,27.80
2018-03-31T04:42:00.738Z,27.70
2018-03-31T04:43:00.757Z,27.60
2018-03-31T04:44:00.773Z,27.70
2018-03-31T04:45:00.791Z,27.80
2018-03-31T04:46:00.808Z,27.80
2018-03-31T04:47:00.825Z,30.40
2018-03-31T04:48:00.842Z,28.70
2018-03-31T04:49:00.859Z,29.30
2018-03-31T04:50:00.877Z,29.50
2018-03-31T04:51:00.894Z,29.00
2018-03-31T04:52:00.911Z,29.50
2018-03-31T04:53:00.927Z,30.00
2018-03-31T04:54:00.946Z,28.00
2018-03-31T04:55:00.962Z,29.90
2018-03-31T04:56:00.981Z,29.40
2018-03-31T04:57:00.998Z,29.70
2018-03-31T04:58:01.016Z,30.40
2018-03-31T04:59:01.032Z,28.90
2018-03-31T05:00:01.048Z,30.40
2018-03-31T05:01:01.064Z,29.80
2018-03-31T05:02:01.088Z,29.40
2018-03-31T05:03:01.102Z,32.50
2018-03-31T05:04:01.116Z,30.70
2018-03-31T05:05:01.133Z,31.70
2018-03-31T05:06:01.158Z,30.50
2018-03-31T05:07:01.172Z,30.70
2018-03-31T05:08:01.185Z,32.90
2018-03-31T05:09:01.202Z,32.20
2018-03-31T05:10:01.220Z,32.50
2018-03-31T05:11:01.236Z,33.40
2018-03-31T05:12:01.287Z,33.20
2018-03-31T05:13:01.312Z,34.00
2018-03-31T05:14:01.286Z,33.50
2018-03-31T05:15:01.304Z,34.20
2018-03-31T05:16:01.322Z,34.30
2018-03-31T05:17:01.337Z,33.70
2018-03-31T05:18:01.354Z,35.20
2018-03-31T05:19:01.372Z,35.90
2018-03-31T05:20:01.390Z,34.80
2018-03-31T05:21:01.404Z,35.20
2018-03-31T05:22:01.424Z,36.00
2018-03-31T05:23:01.442Z,36.20
2018-03-31T05:24:01.457Z,36.00
2018-03-31T05:25:01.473Z,36.00
2018-03-31T05:26:01.493Z,35.50
2018-03-31T05:27:01.507Z,37.10
2018-03-31T05:28:01.524Z,36.90
2018-03-31T05:29:01.540Z,36.90
2018-03-31T05:30:01.557Z,36.10
2018-03-31T05:31:01.575Z,35.90
2018-03-31T05:32:01.592Z,36.00
2018-03-31T05:33:01.608Z,37.70
2018-03-31T05:34:01.625Z,36.40
2018-03-31T05:35:01.642Z,37.10
2018-03-31T05:36:01.660Z,36.90
2018-03-31T05:37:01.676Z,36.50
2018-03-31T05:38:01.692Z,36.60
2018-03-31T05:39:01.710Z,36.70
2018-03-31T05:40:01.728Z,36.60
2018-03-31T05:41:01.743Z,36.10
2018-03-31T05:42:01.761Z,35.70
2018-03-31T05:43:01.779Z,37.20
2018-03-31T05:44:01.794Z,36.00
2018-03-31T05:45:01.812Z,37.40
2018-03-31T05:46:01.828Z,35.60
2018-03-31T05:47:01.845Z,34.80
2018-03-31T05:48:01.862Z,36.50
2018-03-31T05:49:01.881Z,35.30
2018-03-31T05:50:01.895Z,35.60
2018-03-31T05:51:01.912Z,33.50
2018-03-31T05:52:01.938Z,34.00
2018-03-31T05:53:01.946Z,34.80
2018-03-31T05:54:01.963Z,34.50
2018-03-31T05:55:01.981Z,33.00
2018-03-31T05:56:01.998Z,34.30
2018-03-31T05:57:02.014Z,32.90
2018-03-31T05:58:02.031Z,33.80
2018-03-31T05:59:02.051Z,33.40
2018-03-31T06:00:02.071Z,32.80
2018-03-31T06:01:02.082Z,32.10
2018-03-31T06:02:02.101Z,34.00
2018-03-31T06:03:02.117Z,33.40
2018-03-31T06:04:02.134Z,32.60
2018-03-31T06:05:02.152Z,31.80
2018-03-31T06:06:02.168Z,32.40
2018-03-31T06:07:02.186Z,32.20
2018-03-31T06:08:02.203Z,33.20
2018-03-31T06:09:02.220Z,32.60
2018-03-31T06:10:02.236Z,32.20
2018-03-31T06:11:02.255Z,32.90
2018-03-31T06:12:02.272Z,31.20
2018-03-31T06:13:02.288Z,33.20
2018-03-31T06:14:02.306Z,31.00
2018-03-31T06:15:02.368Z,31.60
2018-03-31T06:16:02.341Z,30.20
2018-03-31T06:17:02.357Z,30.10
2018-03-31T06:18:02.373Z,32.10
2018-03-31T06:19:02.399Z,31.80
2018-03-31T06:20:02.409Z,30.50
2018-03-31T06:21:02.428Z,31.20
2018-03-31T06:22:02.444Z,30.80
2018-03-31T06:23:02.461Z,29.90
2018-03-31T06:24:02.479Z,28.60
2018-03-31T06:25:02.496Z,29.80
2018-03-31T06:26:02.514Z,30.10
2018-03-31T06:27:02.532Z,30.40
2018-03-31T06:28:02.552Z,29.20
2018-03-31T06:29:02.565Z,29.20
2018-03-31T06:30:02.584Z,29.90
2018-03-31T06:31:02.600Z,30.00
2018-03-31T06:32:02.621Z,29.60
2018-03-31T06:33:02.636Z,29.90
2018-03-31T06:34:02.653Z,29.70
2018-03-31T06:35:02.669Z,29.10
2018-03-31T06:36:02.689Z,28.00
2018-03-31T06:37:02.705Z,28.20
2018-03-31T06:38:02.723Z,28.20
2018-03-31T06:39:02.747Z,29.30
2018-03-31T06:40:02.759Z,29.20
2018-03-31T06:41:02.776Z,28.80
2018-03-31T06:42:02.794Z,30.20
2018-03-31T06:43:02.811Z,28.60
2018-03-31T06:44:02.830Z,29.20
2018-03-31T06:45:02.846Z,28.70
2018-03-31T06:46:02.862Z,29.70
2018-03-31T06:47:02.881Z,28.10
2018-03-31T06:48:02.899Z,29.50
2018-03-31T06:49:02.916Z,27.90
2018-03-31T06:50:02.994Z,29.20
2018-03-31T06:51:02.952Z,28.60
2018-03-31T06:52:02.970Z,29.60
2018-03-31T06:53:02.987Z,29.90
2018-03-31T06:54:03.007Z,28.70
2018-03-31T06:55:03.023Z,30.10
2018-03-31T06:56:03.041Z,30.10
2018-03-31T06:57:03.056Z,28.20
2018-03-31T06:58:03.075Z,28.00
2018-03-31T06:59:03.093Z,28.60
2018-03-31T07:00:03.112Z,28.80
2018-03-31T07:01:03.128Z,29.40
2018-03-31T07:02:03.145Z,28.50
2018-03-31T07:03:03.165Z,29.10
2018-03-31T07:04:03.182Z,29.50
2018-03-31T07:05:03.199Z,26.40
2018-03-31T07:06:03.217Z,28.00
2018-03-31T07:07:03.238Z,28.20
2018-03-31T07:08:03.253Z,27.80
2018-03-31T07:09:03.270Z,28.90
2018-03-31T07:10:03.288Z,27.60
2018-03-31T07:11:03.307Z,26.70
2018-03-31T07:12:03.325Z,27.20
2018-03-31T07:13:03.342Z,26.10
2018-03-31T07:14:03.361Z,26.10
2018-03-31T07:15:03.380Z,25.30
2018-03-31T07:16:03.396Z,25.40
2018-03-31T07:17:03.413Z,26.70
2018-03-31T07:18:03.431Z,25.40
2018-03-31T07:19:03.449Z,26.50
2018-03-31T07:20:03.468Z,25.20
2018-03-31T07:21:03.485Z,25.80
2018-03-31T07:22:03.503Z,23.70
2018-03-31T07:23:03.521Z,25.90
2018-03-31T07:24:03.540Z,24.70
2018-03-31T07:25:03.558Z,24.30
2018-03-31T07:26:03.575Z,25.10
2018-03-31T07:27:03.595Z,24.90
2018-03-31T07:28:03.612Z,26.00
2018-03-31T07:29:03.630Z,25.00
2018-03-31T07:30:03.648Z,23.90
2018-03-31T07:31:03.666Z,26.10
2018-03-31T07:32:03.684Z,25.50
2018-03-31T07:33:03.701Z,23.70
2018-03-31T07:34:03.720Z,21.40
2018-03-31T07:35:03.739Z,20.70
2018-03-31T07:36:03.757Z,20.80
2018-03-31T07:37:03.779Z,21.40
2018-03-31T07:38:03.793Z,22.60
2018-03-31T07:39:03.811Z,21.00
2018-03-31T07:40:03.829Z,19.70
2018-03-31T07:41:03.848Z,19.90
2018-03-31T07:42:03.865Z,22.00
2018-03-31T07:43:03.883Z,21.00
2018-03-31T07:44:03.902Z,21.60
2018-03-31T07:45:03.920Z,21.40
2018-03-31T07:46:03.963Z,21.20
2018-03-31T07:47:03.955Z,20.20
2018-03-31T07:48:03.979Z,20.90
2018-03-31T07:49:03.992Z,21.00
2018-03-31T07:50:04.009Z,20.10
2018-03-31T07:51:04.028Z,17.90
2018-03-31T07:52:04.111Z,19.80
2018-03-31T07:53:04.063Z,20.50
2018-03-31T07:54:04.083Z,20.90
2018-03-31T07:55:04.101Z,22.00
2018-03-31T07:56:04.118Z,22.50
2018-03-31T07:57:04.135Z,22.70
2018-03-31T07:58:04.153Z,21.00
2018-03-31T07:59:04.174Z,22.00
2018-03-31T08:00:04.190Z,21.20
2018-03-31T08:01:04.208Z,21.40
2018-03-31T08:02:04.224Z,22.30
2018-03-31T08:03:04.245Z,23.60
2018-03-31T08:04:04.262Z,23.60
2018-03-31T08:05:04.280Z,23.90
2018-03-31T08:06:04.298Z,25.10
2018-03-31T08:07:04.316Z,25.50
2018-03-31T08:08:04.395Z,26.30
2018-03-31T08:09:04.352Z,24.70
2018-03-31T08:10:04.372Z,24.20
2018-03-31T08:11:04.390Z,23.70
2018-03-31T08:12:04.409Z,20.50
2018-03-31T08:13:04.425Z,19.00
2018-03-31T08:14:04.444Z,19.20
2018-03-31T08:15:04.463Z,20.20
2018-03-31T08:16:04.482Z,19.20
2018-03-31T08:17:04.500Z,15.60
2018-03-31T08:18:04.519Z,14.40
2018-03-31T08:19:04.537Z,13.50
2018-03-31T08:20:04.556Z,15.80
2018-03-31T08:21:04.574Z,17.20
2018-03-31T08:22:04.596Z,15.60
2018-03-31T08:23:04.611Z,16.00
2018-03-31T08:24:04.630Z,14.60
2018-03-31T08:25:04.647Z,14.70
2018-03-31T08:26:04.666Z,13.60
2018-03-31T08:27:04.686Z,13.50
2018-03-31T08:28:04.704Z,13.80
2018-03-31T08:29:04.722Z,14.70
2018-03-31T08:30:04.740Z,15.70
2018-03-31T08:31:04.759Z,15.50
2018-03-31T08:32:04.777Z,16.00
2018-03-31T08:33:04.796Z,15.60
2018-03-31T08:34:04.817Z,15.60
2018-03-31T08:35:04.833Z,16.00
2018-03-31T08:36:04.852Z,15.00
2018-03-31T08:37:04.871Z,15.20
2018-03-31T08:38:04.888Z,15.50
2018-03-31T08:39:04.908Z,14.90
2018-03-31T08:40:04.927Z,17.30
2018-03-31T08:41:04.944Z,16.60
2018-03-31T08:42:04.964Z,17.10
2018-03-31T08:43:04.987Z,14.90
2018-03-31T08:44:05.002Z,16.30
2018-03-31T08:45:05.019Z,15.00
2018-03-31T08:46:05.038Z,14.80
2018-03-31T08:47:05.129Z,15.50
2018-03-31T08:48:05.077Z,15.90
2018-03-31T08:49:05.096Z,15.50
2018-03-31T08:50:05.115Z,14.10
2018-03-31T08:51:05.134Z,12.60
2018-03-31T08:52:05.152Z,10.50
2018-03-31T08:53:05.170Z,9.70
2018-03-31T08:54:05.191Z,11.30
2018-03-31T08:55:05.209Z,12.30
2018-03-31T08:56:05.230Z,11.30
2018-03-31T08:57:05.248Z,12.90
2018-03-31T08:58:05.267Z,12.60
2018-03-31T08:59:05.288Z,11.20
2018-03-31T09:00:05.306Z,10.80
2018-03-31T09:01:05.325Z,11.50
2018-03-31T09:02:05.344Z,10.20
2018-03-31T09:03:05.414Z,11.90
2018-03-31T09:04:05.387Z,9.30
2018-03-31T09:05:05.402Z,8.80
2018-03-31T09:06:05.422Z,8.60
2018-03-31T09:07:05.443Z,8.80
2018-03-31T09:08:05.463Z,9.40
2018-03-31T09:09:05.482Z,9.10
2018-03-31T09:10:05.500Z,9.70
2018-03-31T09:11:05.520Z,9.40
2018-03-31T09:12:05.545Z,8.60
2018-03-31T09:13:05.557Z,8.50
2018-03-31T09:14:05.578Z,9.20
2018-03-31T09:15:05.599Z,9.60
2018-03-31T09:16:05.624Z,8.50
2018-03-31T09:17:05.637Z,8.30
2018-03-31T09:18:05.656Z,7.90
2018-03-31T09:19:05.674Z,7.90
2018-03-31T09:20:05.695Z,7.00
2018-03-31T09:21:05.713Z,6.90
2018-03-31T09:22:05.733Z,6.70
2018-03-31T09:23:05.755Z,7.50
2018-03-31T09:24:05.772Z,6.90
2018-03-31T09:25:05.791Z,8.10
2018-03-31T09:26:05.812Z,4.40
2018-03-31T09:27:05.832Z,4.60
2018-03-31T09:28:05.851Z,5.00
2018-03-31T09:29:05.870Z,5.40
2018-03-31T09:30:05.890Z,3.80
2018-03-31T09:31:05.909Z,4.50
2018-03-31T09:32:05.930Z,3.80
2018-03-31T09:33:05.949Z,3.40
2018-03-31T09:34:05.969Z,4.20
2018-03-31T09:35:05.989Z,4.20
2018-03-31T09:36:06.009Z,4.10
2018-03-31T09:37:06.029Z,4.80
2018-03-31T09:38:06.048Z,5.00
2018-03-31T09:39:06.068Z,5.00
2018-03-31T09:40:06.088Z,4.90
2018-03-31T09:41:06.107Z,5.50
2018-03-31T09:42:06.127Z,5.20
2018-03-31T09:43:06.152Z,5.40
2018-03-31T09:44:06.173Z,5.00
2018-03-31T09:45:06.193Z,5.40
2018-03-31T09:46:06.215Z,5.80
2018-03-31T09:47:06.229Z,5.80
2018-03-31T09:48:06.246Z,6.00
2018-03-31T09:49:06.266Z,5.40
2018-03-31T09:50:06.285Z,5.30
2018-03-31T09:51:06.306Z,5.40
2018-03-31T09:52:06.326Z,5.60
2018-03-31T09:53:06.346Z,4.60
2018-03-31T09:54:06.366Z,5.00
2018-03-31T09:55:06.535Z,5.40
2018-03-31T09:56:06.411Z,4.70
2018-03-31T09:57:06.426Z,4.10
2018-03-31T09:58:06.445Z,4.40
2018-03-31T09:59:06.466Z,4.20
2018-03-31T10:00:06.486Z,3.90
2018-03-31T10:01:06.506Z,3.90
2018-03-31T10:02:06.524Z,3.70
2018-03-31T10:03:06.546Z,4.20
2018-03-31T10:04:06.566Z,4.00
2018-03-31T10:05:06.585Z,4.40
2018-03-31T10:06:06.656Z,4.10
2018-03-31T10:07:06.628Z,4.40
2018-03-31T10:08:06.646Z,4.40
2018-03-31T10:09:06.665Z,4.30
2018-03-31T10:10:06.686Z,4.40
2018-03-31T10:11:06.706Z,4.30
2018-03-31T10:12:06.727Z,4.10
2018-03-31T10:13:06.745Z,3.70
2018-03-31T10:14:06.766Z,4.00
2018-03-31T10:15:06.787Z,4.10
2018-03-31T10:16:06.807Z,4.30
2018-03-31T10:17:06.827Z,3.80
2018-03-31T10:18:06.846Z,4.10
2018-03-31T10:19:06.870Z,4.20
2018-03-31T10:20:06.887Z,4.90
2018-03-31T10:21:06.906Z,4.50
2018-03-31T10:22:06.927Z,5.10
2018-03-31T10:23:06.946Z,5.10
2018-03-31T10:24:06.967Z,5.00
2018-03-31T10:25:06.989Z,4.50
2018-03-31T10:26:07.007Z,5.20
2018-03-31T10:27:07.027Z,5.10
2018-03-31T10:28:07.048Z,4.30
2018-03-31T10:29:07.067Z,4.60
2018-03-31T10:30:07.088Z,3.90
2018-03-31T10:31:07.108Z,4.00
2018-03-31T10:32:07.129Z,4.50
2018-03-31T10:33:07.148Z,5.10
2018-03-31T10:34:07.168Z,6.00
2018-03-31T10:35:07.189Z,5.40
2018-03-31T10:36:07.211Z,4.50
2018-03-31T10:37:07.229Z,4.80
2018-03-31T10:38:07.251Z,5.60
2018-03-31T10:39:07.269Z,4.30
2018-03-31T10:40:07.290Z,4.20
2018-03-31T10:41:07.309Z,4.50
2018-03-31T10:42:07.330Z,4.00
2018-03-31T10:43:07.351Z,4.10
2018-03-31T10:44:07.370Z,4.10
2018-03-31T10:45:07.390Z,4.80
2018-03-31T10:46:07.410Z,4.50
2018-03-31T10:47:07.681Z,4.20
2018-03-31T10:48:07.453Z,4.60
2018-03-31T10:49:07.470Z,4.20
2018-03-31T10:50:07.492Z,4.20
2018-03-31T10:51:07.512Z,4.10
2018-03-31T10:52:07.535Z,4.20
2018-03-31T10:53:07.551Z,4.10
2018-03-31T10:54:07.572Z,4.70
2018-03-31T10:55:07.593Z,4.10
2018-03-31T10:56:07.615Z,4.70
2018-03-31T10:57:07.635Z,4.40
2018-03-31T10:58:07.654Z,4.30
2018-03-31T10:59:07.677Z,4.20
2018-03-31T11:00:07.696Z,5.30
2018-03-31T11:01:07.724Z,5.30
2018-03-31T11:02:07.735Z,5.00
2018-03-31T11:03:07.760Z,5.00
2018-03-31T11:04:07.781Z,5.00
2018-03-31T11:05:07.798Z,4.80
2018-03-31T11:06:07.818Z,4.00
2018-03-31T11:07:07.840Z,4.50
2018-03-31T11:08:07.859Z,4.40
2018-03-31T11:09:07.881Z,4.40
2018-03-31T11:10:07.900Z,4.10
2018-03-31T11:11:07.920Z,4.00
2018-03-31T11:12:07.941Z,3.80
2018-03-31T11:13:07.960Z,4.40
2018-03-31T11:14:07.981Z,4.10
2018-03-31T11:15:08.001Z,4.60
2018-03-31T11:16:08.027Z,4.40
2018-03-31T11:17:08.042Z,4.10
2018-03-31T11:18:08.062Z,3.80
2018-03-31T11:19:08.083Z,6.70
2018-03-31T11:20:08.104Z,4.50
2018-03-31T11:21:08.129Z,4.80
2018-03-31T11:22:08.143Z,4.20
2018-03-31T11:23:08.169Z,4.30
2018-03-31T11:24:08.185Z,4.30
2018-03-31T11:25:08.205Z,4.60
2018-03-31T11:26:08.226Z,3.90
2018-03-31T11:27:08.247Z,3.90
2018-03-31T11:28:08.268Z,3.90
2018-03-31T11:29:08.288Z,4.10
2018-03-31T11:30:08.308Z,4.50
2018-03-31T11:31:08.329Z,4.80
2018-03-31T11:32:08.350Z,4.50
2018-03-31T11:33:08.372Z,4.30
2018-03-31T11:34:08.391Z,4.40
2018-03-31T11:35:08.412Z,4.10
2018-03-31T11:36:08.433Z,4.30
2018-03-31T11:37:08.453Z,5.20
2018-03-31T11:38:08.474Z,4.40
2018-03-31T11:39:08.496Z,4.70
2018-03-31T11:40:08.527Z,4.60
2018-03-31T11:41:08.536Z,4.60
2018-03-31T11:42:08.557Z,4.80
2018-03-31T11:43:08.578Z,5.10
2018-03-31T11:44:08.599Z,5.00
2018-03-31T11:45:08.620Z,5.30
2018-03-31T11:46:08.643Z,5.10
2018-03-31T11:47:08.662Z,5.60
2018-03-31T11:48:08.682Z,5.50
2018-03-31T11:49:08.703Z,4.90
2018-03-31T11:50:08.724Z,5.60
2018-03-31T11:51:08.745Z,5.40
2018-03-31T11:52:08.768Z,5.00
2018-03-31T11:53:08.786Z,4.90
2018-03-31T11:54:08.808Z,4.20
2018-03-31T11:55:08.829Z,4.20
2018-03-31T11:56:08.850Z,4.40
2018-03-31T11:57:08.871Z,4.50
2018-03-31T11:58:08.891Z,4.70
2018-03-31T11:59:08.913Z,4.50
2018-03-31T12:00:08.934Z,4.70
2018-03-31T12:01:08.954Z,4.30
2018-03-31T12:02:08.976Z,5.40
2018-03-31T12:03:08.999Z,4.50
2018-03-31T12:04:09.018Z,4.60
2018-03-31T12:05:09.038Z,4.40
2018-03-31T12:06:09.059Z,4.50
2018-03-31T12:07:09.083Z,4.00
2018-03-31T12:08:09.101Z,4.50
2018-03-31T12:09:09.122Z,4.80
2018-03-31T12:10:09.143Z,4.50
2018-03-31T12:11:09.223Z,4.30
2018-03-31T12:12:09.188Z,4.60
2018-03-31T12:13:09.204Z,5.00
2018-03-31T12:14:09.226Z,4.40
2018-03-31T12:15:09.298Z,4.20
2018-03-31T12:16:09.269Z,4.60
2018-03-31T12:17:09.288Z,4.50
2018-03-31T12:18:09.309Z,4.00
2018-03-31T12:19:09.331Z,4.70
2018-03-31T12:20:09.356Z,4.90
2018-03-31T12:21:09.372Z,4.00
2018-03-31T12:22:09.392Z,3.70
2018-03-31T12:23:09.415Z,4.00
2018-03-31T12:24:09.436Z,3.80
2018-03-31T12:25:09.457Z,3.90
2018-03-31T12:26:09.477Z,3.90
2018-03-31T12:27:09.533Z,3.90
2018-03-31T12:28:09.518Z,3.70
2018-03-31T12:29:09.539Z,4.40
2018-03-31T12:30:09.560Z,3.90
2018-03-31T12:31:09.582Z,3.80
2018-03-31T12:32:09.603Z,5.00
2018-03-31T12:33:09.623Z,4.30
2018-03-31T12:34:09.647Z,4.20
2018-03-31T12:35:09.666Z,4.40
2018-03-31T12:36:09.686Z,3.80
2018-03-31T12:37:09.706Z,3.90
2018-03-31T12:38:09.727Z,4.50
2018-03-31T12:39:09.748Z,3.90
2018-03-31T12:40:09.770Z,4.20
2018-03-31T12:41:09.789Z,4.20
2018-03-31T12:42:09.811Z,4.00
2018-03-31T12:43:09.932Z,3.20
2018-03-31T12:44:09.853Z,3.50
2018-03-31T12:45:09.874Z,3.50
2018-03-31T12:46:09.899Z,4.60
2018-03-31T12:47:09.918Z,4.50
2018-03-31T12:48:09.939Z,5.20
2018-03-31T12:49:09.958Z,4.40
2018-03-31T12:50:09.979Z,4.70
2018-03-31T12:51:10.005Z,4.50
2018-03-31T12:52:10.024Z,5.00
2018-03-31T12:53:10.042Z,4.80
2018-03-31T12:54:10.064Z,4.60
2018-03-31T12:55:10.085Z,4.50
2018-03-31T12:56:10.107Z,4.50
2018-03-31T12:57:10.128Z,5.70
2018-03-31T12:58:10.149Z,21.30
2018-03-31T12:59:10.173Z,5.40
2018-03-31T13:00:10.192Z,5.00
2018-03-31T13:01:10.212Z,6.40